sensor_id;sensor_type;location;lat;lon;timestamp;P1;durP1;ratioP1;P2;durP2;ratioP2
11247;SDS011;5681;53.316;13.950;2023-04-24T00:02:24;16.33;;;14.32;;
11247;SDS011;5681;53.316;13.950;2023-04-24T00:04:50;16.88;;;15.07;;
11247;SDS011;5681;53.316;13.950;2023-04-24T00:07:17;15.85;;;14.18;;
11247;SDS011;5681;53.316;13.950;2023-04-24T00:09:46;17.77;;;13.88;;
11247;SDS011;5681;53.316;13.950;2023-04-24T00:12:12;16.60;;;13.57;;
11247;SDS011;5681;53.316;13.950;2023-04-24T00:14:39;15.50;;;13.82;;
11247;SDS011;5681;53.316;13.950;2023-04-24T00:17:05;15.02;;;13.52;;
11247;SDS011;5681;53.316;13.950;2023-04-24T00:19:31;15.95;;;14.35;;
11247;SDS011;5681;53.316;13.950;2023-04-24T00:21:57;19.00;;;13.88;;
11247;SDS011;5681;53.316;13.950;2023-04-24T00:24:24;16.13;;;13.30;;
11247;SDS011;5681;53.316;13.950;2023-04-24T00:26:52;15.32;;;13.77;;
11247;SDS011;5681;53.316;13.950;2023-04-24T00:29:18;18.63;;;16.02;;
11247;SDS011;5681;53.316;13.950;2023-04-24T00:31:44;18.83;;;15.75;;
11247;SDS011;5681;53.316;13.950;2023-04-24T00:34:11;18.92;;;16.10;;
11247;SDS011;5681;53.316;13.950;2023-04-24T00:36:37;19.60;;;16.00;;
11247;SDS011;5681;53.316;13.950;2023-04-24T00:39:04;18.20;;;15.77;;
11247;SDS011;5681;53.316;13.950;2023-04-24T00:41:30;17.55;;;15.52;;
11247;SDS011;5681;53.316;13.950;2023-04-24T00:43:58;17.40;;;14.73;;
11247;SDS011;5681;53.316;13.950;2023-04-24T00:46:24;17.83;;;15.93;;
11247;SDS011;5681;53.316;13.950;2023-04-24T00:48:50;18.90;;;15.40;;
11247;SDS011;5681;53.316;13.950;2023-04-24T00:51:16;19.77;;;14.65;;
11247;SDS011;5681;53.316;13.950;2023-04-24T00:53:43;18.92;;;15.50;;
11247;SDS011;5681;53.316;13.950;2023-04-24T00:56:09;17.55;;;15.30;;
11247;SDS011;5681;53.316;13.950;2023-04-24T00:58:36;24.40;;;15.88;;
11247;SDS011;5681;53.316;13.950;2023-04-24T01:01:04;19.60;;;15.60;;
11247;SDS011;5681;53.316;13.950;2023-04-24T01:03:32;20.38;;;15.25;;
11247;SDS011;5681;53.316;13.950;2023-04-24T01:05:59;17.65;;;15.75;;
11247;SDS011;5681;53.316;13.950;2023-04-24T01:08:26;19.27;;;15.97;;
11247;SDS011;5681;53.316;13.950;2023-04-24T01:10:54;18.75;;;16.35;;
11247;SDS011;5681;53.316;13.950;2023-04-24T01:13:21;20.20;;;17.20;;
11247;SDS011;5681;53.316;13.950;2023-04-24T01:15:47;19.73;;;16.17;;
11247;SDS011;5681;53.316;13.950;2023-04-24T01:18:15;20.30;;;16.70;;
11247;SDS011;5681;53.316;13.950;2023-04-24T01:20:42;17.88;;;15.93;;
11247;SDS011;5681;53.316;13.950;2023-04-24T01:23:11;17.98;;;16.08;;
11247;SDS011;5681;53.316;13.950;2023-04-24T01:25:37;17.88;;;15.98;;
11247;SDS011;5681;53.316;13.950;2023-04-24T01:28:04;18.67;;;16.37;;
11247;SDS011;5681;53.316;13.950;2023-04-24T01:30:30;18.00;;;15.43;;
11247;SDS011;5681;53.316;13.950;2023-04-24T01:32:57;19.55;;;16.70;;
11247;SDS011;5681;53.316;13.950;2023-04-24T01:35:24;18.02;;;16.13;;
11247;SDS011;5681;53.316;13.950;2023-04-24T01:37:51;20.55;;;17.83;;
11247;SDS011;5681;53.316;13.950;2023-04-24T01:40:19;18.80;;;16.45;;
11247;SDS011;5681;53.316;13.950;2023-04-24T01:42:45;21.23;;;17.25;;
11247;SDS011;5681;53.316;13.950;2023-04-24T01:45:12;19.92;;;16.50;;
11247;SDS011;5681;53.316;13.950;2023-04-24T01:47:38;22.60;;;17.40;;
11247;SDS011;5681;53.316;13.950;2023-04-24T01:50:05;18.45;;;16.15;;
11247;SDS011;5681;53.316;13.950;2023-04-24T01:52:33;20.83;;;16.98;;
11247;SDS011;5681;53.316;13.950;2023-04-24T01:55:00;17.08;;;15.38;;
11247;SDS011;5681;53.316;13.950;2023-04-24T01:57:28;17.58;;;15.20;;
11247;SDS011;5681;53.316;13.950;2023-04-24T01:59:55;17.38;;;15.55;;
11247;SDS011;5681;53.316;13.950;2023-04-24T02:02:22;17.73;;;14.85;;
11247;SDS011;5681;53.316;13.950;2023-04-24T02:04:49;16.08;;;14.48;;
11247;SDS011;5681;53.316;13.950;2023-04-24T02:07:15;16.45;;;14.77;;
11247;SDS011;5681;53.316;13.950;2023-04-24T02:09:41;19.88;;;15.23;;
11247;SDS011;5681;53.316;13.950;2023-04-24T02:12:08;18.63;;;16.13;;
11247;SDS011;5681;53.316;13.950;2023-04-24T02:14:35;18.90;;;15.00;;
11247;SDS011;5681;53.316;13.950;2023-04-24T02:17:02;24.60;;;16.85;;
11247;SDS011;5681;53.316;13.950;2023-04-24T02:19:28;18.80;;;15.60;;
11247;SDS011;5681;53.316;13.950;2023-04-24T02:21:54;17.52;;;15.70;;
11247;SDS011;5681;53.316;13.950;2023-04-24T02:24:21;19.77;;;15.75;;
11247;SDS011;5681;53.316;13.950;2023-04-24T02:26:47;20.50;;;16.45;;
11247;SDS011;5681;53.316;13.950;2023-04-24T02:29:13;21.30;;;15.50;;
11247;SDS011;5681;53.316;13.950;2023-04-24T02:31:42;17.48;;;15.38;;
11247;SDS011;5681;53.316;13.950;2023-04-24T02:34:08;17.73;;;15.32;;
11247;SDS011;5681;53.316;13.950;2023-04-24T02:36:35;18.10;;;16.30;;
11247;SDS011;5681;53.316;13.950;2023-04-24T02:39:01;18.45;;;16.27;;
11247;SDS011;5681;53.316;13.950;2023-04-24T02:41:28;20.90;;;17.08;;
11247;SDS011;5681;53.316;13.950;2023-04-24T02:43:57;18.38;;;16.48;;
11247;SDS011;5681;53.316;13.950;2023-04-24T02:46:23;18.75;;;16.13;;
11247;SDS011;5681;53.316;13.950;2023-04-24T02:48:51;18.50;;;15.88;;
11247;SDS011;5681;53.316;13.950;2023-04-24T02:51:17;17.77;;;15.93;;
11247;SDS011;5681;53.316;13.950;2023-04-24T02:53:43;18.08;;;16.00;;
11247;SDS011;5681;53.316;13.950;2023-04-24T02:56:10;19.92;;;15.82;;
11247;SDS011;5681;53.316;13.950;2023-04-24T02:58:37;19.50;;;15.93;;
11247;SDS011;5681;53.316;13.950;2023-04-24T03:01:03;19.63;;;15.98;;
11247;SDS011;5681;53.316;13.950;2023-04-24T03:03:30;17.23;;;15.43;;
11247;SDS011;5681;53.316;13.950;2023-04-24T03:05:57;19.90;;;16.83;;
11247;SDS011;5681;53.316;13.950;2023-04-24T03:08:24;17.48;;;15.60;;
11247;SDS011;5681;53.316;13.950;2023-04-24T03:10:50;18.50;;;15.50;;
11247;SDS011;5681;53.316;13.950;2023-04-24T03:13:17;17.13;;;15.23;;
11247;SDS011;5681;53.316;13.950;2023-04-24T03:15:43;17.90;;;16.00;;
11247;SDS011;5681;53.316;13.950;2023-04-24T03:18:10;18.75;;;15.48;;
11247;SDS011;5681;53.316;13.950;2023-04-24T03:20:36;15.82;;;14.13;;
11247;SDS011;5681;53.316;13.950;2023-04-24T03:23:04;16.80;;;14.27;;
11247;SDS011;5681;53.316;13.950;2023-04-24T03:25:30;16.33;;;14.63;;
11247;SDS011;5681;53.316;13.950;2023-04-24T03:27:56;16.33;;;14.45;;
11247;SDS011;5681;53.316;13.950;2023-04-24T03:30:23;17.45;;;15.65;;
11247;SDS011;5681;53.316;13.950;2023-04-24T03:32:49;19.27;;;14.30;;
11247;SDS011;5681;53.316;13.950;2023-04-24T03:35:15;17.73;;;14.48;;
11247;SDS011;5681;53.316;13.950;2023-04-24T03:37:42;15.48;;;13.88;;
11247;SDS011;5681;53.316;13.950;2023-04-24T03:40:10;16.08;;;14.35;;
11247;SDS011;5681;53.316;13.950;2023-04-24T03:42:36;16.02;;;14.43;;
11247;SDS011;5681;53.316;13.950;2023-04-24T03:45:03;15.18;;;13.45;;
11247;SDS011;5681;53.316;13.950;2023-04-24T03:47:30;17.70;;;14.18;;
11247;SDS011;5681;53.316;13.950;2023-04-24T03:49:56;15.80;;;14.00;;
11247;SDS011;5681;53.316;13.950;2023-04-24T03:52:23;16.80;;;13.43;;
11247;SDS011;5681;53.316;13.950;2023-04-24T03:54:49;16.65;;;14.95;;
11247;SDS011;5681;53.316;13.950;2023-04-24T03:57:17;15.40;;;13.88;;
11247;SDS011;5681;53.316;13.950;2023-04-24T03:59:43;15.48;;;13.88;;
11247;SDS011;5681;53.316;13.950;2023-04-24T04:02:09;15.38;;;13.68;;
11247;SDS011;5681;53.316;13.950;2023-04-24T04:04:36;15.52;;;14.00;;
11247;SDS011;5681;53.316;13.950;2023-04-24T04:07:02;16.60;;;14.73;;
11247;SDS011;5681;53.316;13.950;2023-04-24T04:09:30;16.08;;;14.40;;
11247;SDS011;5681;53.316;13.950;2023-04-24T04:11:57;15.30;;;13.77;;
11247;SDS011;5681;53.316;13.950;2023-04-24T04:14:25;18.10;;;15.43;;
11247;SDS011;5681;53.316;13.950;2023-04-24T04:16:51;16.27;;;14.57;;
11247;SDS011;5681;53.316;13.950;2023-04-24T04:19:17;17.17;;;15.20;;
11247;SDS011;5681;53.316;13.950;2023-04-24T04:21:44;16.27;;;14.60;;
11247;SDS011;5681;53.316;13.950;2023-04-24T04:24:11;16.63;;;14.85;;
11247;SDS011;5681;53.316;13.950;2023-04-24T04:26:37;16.92;;;15.23;;
11247;SDS011;5681;53.316;13.950;2023-04-24T04:29:05;18.63;;;15.88;;
11247;SDS011;5681;53.316;13.950;2023-04-24T04:31:33;17.92;;;16.02;;
11247;SDS011;5681;53.316;13.950;2023-04-24T04:33:59;17.52;;;15.75;;
11247;SDS011;5681;53.316;13.950;2023-04-24T04:36:26;19.40;;;16.90;;
11247;SDS011;5681;53.316;13.950;2023-04-24T04:38:54;20.25;;;17.45;;
11247;SDS011;5681;53.316;13.950;2023-04-24T04:41:21;19.73;;;17.48;;
11247;SDS011;5681;53.316;13.950;2023-04-24T04:43:48;21.50;;;19.23;;
11247;SDS011;5681;53.316;13.950;2023-04-24T04:46:14;23.17;;;20.67;;
11247;SDS011;5681;53.316;13.950;2023-04-24T04:48:42;24.58;;;21.92;;
11247;SDS011;5681;53.316;13.950;2023-04-24T04:51:09;24.33;;;21.73;;
11247;SDS011;5681;53.316;13.950;2023-04-24T04:53:35;26.83;;;22.40;;
11247;SDS011;5681;53.316;13.950;2023-04-24T04:56:02;29.73;;;24.30;;
11247;SDS011;5681;53.316;13.950;2023-04-24T04:58:28;32.58;;;25.10;;
11247;SDS011;5681;53.316;13.950;2023-04-24T05:00:55;30.70;;;24.75;;
11247;SDS011;5681;53.316;13.950;2023-04-24T05:03:22;28.30;;;24.83;;
11247;SDS011;5681;53.316;13.950;2023-04-24T05:05:49;31.15;;;26.05;;
11247;SDS011;5681;53.316;13.950;2023-04-24T05:08:16;30.30;;;25.35;;
11247;SDS011;5681;53.316;13.950;2023-04-24T05:10:42;30.13;;;25.92;;
11247;SDS011;5681;53.316;13.950;2023-04-24T05:13:08;31.30;;;25.70;;
11247;SDS011;5681;53.316;13.950;2023-04-24T05:15:35;28.85;;;24.13;;
11247;SDS011;5681;53.316;13.950;2023-04-24T05:18:01;29.83;;;24.40;;
11247;SDS011;5681;53.316;13.950;2023-04-24T05:20:28;28.27;;;24.67;;
11247;SDS011;5681;53.316;13.950;2023-04-24T05:22:56;28.95;;;24.77;;
11247;SDS011;5681;53.316;13.950;2023-04-24T05:25:22;27.35;;;23.92;;
11247;SDS011;5681;53.316;13.950;2023-04-24T05:27:48;32.97;;;25.10;;
11247;SDS011;5681;53.316;13.950;2023-04-24T05:30:14;29.50;;;24.30;;
11247;SDS011;5681;53.316;13.950;2023-04-24T05:32:41;27.95;;;24.23;;
11247;SDS011;5681;53.316;13.950;2023-04-24T05:35:07;26.25;;;23.13;;
11247;SDS011;5681;53.316;13.950;2023-04-24T05:37:34;31.83;;;22.23;;
11247;SDS011;5681;53.316;13.950;2023-04-24T05:40:02;25.65;;;22.38;;
11247;SDS011;5681;53.316;13.950;2023-04-24T05:42:30;26.35;;;21.02;;
11247;SDS011;5681;53.316;13.950;2023-04-24T05:44:56;24.00;;;21.08;;
11247;SDS011;5681;53.316;13.950;2023-04-24T05:47:22;24.45;;;21.40;;
11247;SDS011;5681;53.316;13.950;2023-04-24T05:49:49;26.00;;;20.75;;
11247;SDS011;5681;53.316;13.950;2023-04-24T05:52:15;23.25;;;20.67;;
11247;SDS011;5681;53.316;13.950;2023-04-24T05:54:41;22.83;;;19.80;;
11247;SDS011;5681;53.316;13.950;2023-04-24T05:57:09;23.38;;;20.95;;
11247;SDS011;5681;53.316;13.950;2023-04-24T05:59:36;23.23;;;18.85;;
11247;SDS011;5681;53.316;13.950;2023-04-24T06:02:03;21.05;;;18.75;;
11247;SDS011;5681;53.316;13.950;2023-04-24T06:04:29;19.67;;;17.70;;
11247;SDS011;5681;53.316;13.950;2023-04-24T06:06:56;19.02;;;16.42;;
11247;SDS011;5681;53.316;13.950;2023-04-24T06:09:22;19.63;;;17.58;;
11247;SDS011;5681;53.316;13.950;2023-04-24T06:11:48;22.70;;;17.77;;
11247;SDS011;5681;53.316;13.950;2023-04-24T06:14:18;20.73;;;17.70;;
11247;SDS011;5681;53.316;13.950;2023-04-24T06:16:45;21.48;;;17.15;;
11247;SDS011;5681;53.316;13.950;2023-04-24T06:19:11;16.90;;;15.20;;
11247;SDS011;5681;53.316;13.950;2023-04-24T06:21:37;16.92;;;15.07;;
11247;SDS011;5681;53.316;13.950;2023-04-24T06:24:04;17.65;;;15.75;;
11247;SDS011;5681;53.316;13.950;2023-04-24T06:26:30;18.27;;;16.38;;
11247;SDS011;5681;53.316;13.950;2023-04-24T06:28:56;17.40;;;15.60;;
11247;SDS011;5681;53.316;13.950;2023-04-24T06:31:25;21.83;;;14.60;;
11247;SDS011;5681;53.316;13.950;2023-04-24T06:33:51;16.40;;;14.75;;
11247;SDS011;5681;53.316;13.950;2023-04-24T06:36:18;15.02;;;13.60;;
11247;SDS011;5681;53.316;13.950;2023-04-24T06:38:44;14.02;;;12.40;;
11247;SDS011;5681;53.316;13.950;2023-04-24T06:41:11;14.18;;;12.82;;
11247;SDS011;5681;53.316;13.950;2023-04-24T06:43:37;14.02;;;12.60;;
11247;SDS011;5681;53.316;13.950;2023-04-24T06:46:04;12.88;;;11.23;;
11247;SDS011;5681;53.316;13.950;2023-04-24T06:48:32;11.73;;;10.52;;
11247;SDS011;5681;53.316;13.950;2023-04-24T06:50:58;11.13;;;10.02;;
11247;SDS011;5681;53.316;13.950;2023-04-24T06:53:24;10.38;;;9.38;;
11247;SDS011;5681;53.316;13.950;2023-04-24T06:55:54;10.40;;;9.40;;
11247;SDS011;5681;53.316;13.950;2023-04-24T06:58:20;10.13;;;9.20;;
11247;SDS011;5681;53.316;13.950;2023-04-24T07:00:46;10.52;;;9.45;;
11247;SDS011;5681;53.316;13.950;2023-04-24T07:03:13;9.60;;;8.80;;
11247;SDS011;5681;53.316;13.950;2023-04-24T07:05:41;10.23;;;9.23;;
11247;SDS011;5681;53.316;13.950;2023-04-24T07:08:07;10.40;;;9.32;;
11247;SDS011;5681;53.316;13.950;2023-04-24T07:10:36;10.05;;;9.13;;
11247;SDS011;5681;53.316;13.950;2023-04-24T07:13:02;10.00;;;9.00;;
11247;SDS011;5681;53.316;13.950;2023-04-24T07:15:29;10.15;;;8.82;;
11247;SDS011;5681;53.316;13.950;2023-04-24T07:17:57;9.77;;;8.77;;
11247;SDS011;5681;53.316;13.950;2023-04-24T07:20:23;11.85;;;10.18;;
11247;SDS011;5681;53.316;13.950;2023-04-24T07:22:51;11.15;;;10.15;;
11247;SDS011;5681;53.316;13.950;2023-04-24T07:25:19;10.38;;;8.55;;
11247;SDS011;5681;53.316;13.950;2023-04-24T07:27:45;7.78;;;7.00;;
11247;SDS011;5681;53.316;13.950;2023-04-24T07:30:12;8.90;;;7.30;;
11247;SDS011;5681;53.316;13.950;2023-04-24T07:32:38;8.73;;;7.95;;
11247;SDS011;5681;53.316;13.950;2023-04-24T07:35:05;8.35;;;6.65;;
11247;SDS011;5681;53.316;13.950;2023-04-24T07:37:31;7.20;;;6.50;;
11247;SDS011;5681;53.316;13.950;2023-04-24T07:39:59;7.00;;;6.07;;
11247;SDS011;5681;53.316;13.950;2023-04-24T07:42:25;6.28;;;5.68;;
11247;SDS011;5681;53.316;13.950;2023-04-24T07:44:52;6.20;;;5.57;;
11247;SDS011;5681;53.316;13.950;2023-04-24T07:47:18;7.40;;;5.30;;
11247;SDS011;5681;53.316;13.950;2023-04-24T07:49:45;5.63;;;5.13;;
11247;SDS011;5681;53.316;13.950;2023-04-24T07:52:11;5.65;;;4.90;;
11247;SDS011;5681;53.316;13.950;2023-04-24T07:54:37;5.28;;;4.68;;
11247;SDS011;5681;53.316;13.950;2023-04-24T07:57:05;4.70;;;4.30;;
11247;SDS011;5681;53.316;13.950;2023-04-24T07:59:33;5.35;;;4.40;;
11247;SDS011;5681;53.316;13.950;2023-04-24T08:01:59;4.30;;;3.88;;
11247;SDS011;5681;53.316;13.950;2023-04-24T08:04:26;4.40;;;4.00;;
11247;SDS011;5681;53.316;13.950;2023-04-24T08:06:53;6.15;;;4.40;;
11247;SDS011;5681;53.316;13.950;2023-04-24T08:09:19;5.13;;;3.80;;
11247;SDS011;5681;53.316;13.950;2023-04-24T08:11:45;3.75;;;3.20;;
11247;SDS011;5681;53.316;13.950;2023-04-24T08:14:13;3.78;;;3.45;;
11247;SDS011;5681;53.316;13.950;2023-04-24T08:16:39;3.72;;;3.10;;
11247;SDS011;5681;53.316;13.950;2023-04-24T08:19:06;3.15;;;2.85;;
11247;SDS011;5681;53.316;13.950;2023-04-24T08:21:36;3.28;;;2.97;;
11247;SDS011;5681;53.316;13.950;2023-04-24T08:24:02;4.65;;;3.00;;
11247;SDS011;5681;53.316;13.950;2023-04-24T08:26:32;4.70;;;2.90;;
11247;SDS011;5681;53.316;13.950;2023-04-24T08:28:59;3.38;;;2.90;;
11247;SDS011;5681;53.316;13.950;2023-04-24T08:31:26;3.92;;;2.50;;
11247;SDS011;5681;53.316;13.950;2023-04-24T08:33:53;4.28;;;3.00;;
11247;SDS011;5681;53.316;13.950;2023-04-24T08:36:19;3.80;;;2.60;;
11247;SDS011;5681;53.316;13.950;2023-04-24T08:38:45;4.13;;;2.78;;
11247;SDS011;5681;53.316;13.950;2023-04-24T08:41:12;2.88;;;2.47;;
11247;SDS011;5681;53.316;13.950;2023-04-24T08:43:40;6.68;;;2.63;;
11247;SDS011;5681;53.316;13.950;2023-04-24T08:46:07;4.47;;;2.97;;
11247;SDS011;5681;53.316;13.950;2023-04-24T08:48:35;4.05;;;2.55;;
11247;SDS011;5681;53.316;13.950;2023-04-24T08:51:02;3.15;;;2.20;;
11247;SDS011;5681;53.316;13.950;2023-04-24T08:53:28;3.90;;;2.42;;
11247;SDS011;5681;53.316;13.950;2023-04-24T08:55:56;3.15;;;2.30;;
11247;SDS011;5681;53.316;13.950;2023-04-24T08:58:24;3.17;;;2.00;;
11247;SDS011;5681;53.316;13.950;2023-04-24T09:00:51;2.45;;;2.10;;
11247;SDS011;5681;53.316;13.950;2023-04-24T09:03:18;3.58;;;2.10;;
11247;SDS011;5681;53.316;13.950;2023-04-24T09:05:47;2.60;;;1.80;;
11247;SDS011;5681;53.316;13.950;2023-04-24T09:08:16;2.35;;;1.88;;
11247;SDS011;5681;53.316;13.950;2023-04-24T09:10:44;4.07;;;1.75;;
11247;SDS011;5681;53.316;13.950;2023-04-24T09:13:10;4.15;;;2.05;;
11247;SDS011;5681;53.316;13.950;2023-04-24T09:15:37;2.08;;;1.55;;
11247;SDS011;5681;53.316;13.950;2023-04-24T09:18:04;2.50;;;1.85;;
11247;SDS011;5681;53.316;13.950;2023-04-24T09:20:31;2.00;;;1.73;;
11247;SDS011;5681;53.316;13.950;2023-04-24T09:22:58;3.47;;;1.70;;
11247;SDS011;5681;53.316;13.950;2023-04-24T09:25:25;3.03;;;1.70;;
11247;SDS011;5681;53.316;13.950;2023-04-24T09:28:00;4.75;;;1.90;;
11247;SDS011;5681;53.316;13.950;2023-04-24T09:30:26;1.70;;;1.60;;
11247;SDS011;5681;53.316;13.950;2023-04-24T09:35:40;6.43;;;2.10;;
11247;SDS011;5681;53.316;13.950;2023-04-24T09:38:15;2.47;;;1.70;;
11247;SDS011;5681;53.316;13.950;2023-04-24T09:40:41;4.43;;;1.88;;
11247;SDS011;5681;53.316;13.950;2023-04-24T09:43:10;2.45;;;1.90;;
11247;SDS011;5681;53.316;13.950;2023-04-24T09:45:37;2.65;;;1.70;;
11247;SDS011;5681;53.316;13.950;2023-04-24T09:48:05;4.00;;;1.70;;
11247;SDS011;5681;53.316;13.950;2023-04-24T09:50:32;4.45;;;1.80;;
11247;SDS011;5681;53.316;13.950;2023-04-24T09:53:01;3.42;;;1.65;;
11247;SDS011;5681;53.316;13.950;2023-04-24T09:55:30;1.50;;;1.40;;
11247;SDS011;5681;53.316;13.950;2023-04-24T09:57:57;1.55;;;1.45;;
11247;SDS011;5681;53.316;13.950;2023-04-24T10:00:25;2.78;;;1.45;;
11247;SDS011;5681;53.316;13.950;2023-04-24T10:02:56;2.83;;;1.20;;
11247;SDS011;5681;53.316;13.950;2023-04-24T10:05:24;4.40;;;1.45;;
11247;SDS011;5681;53.316;13.950;2023-04-24T10:07:51;1.52;;;1.27;;
11247;SDS011;5681;53.316;13.950;2023-04-24T10:10:17;1.75;;;1.30;;
11247;SDS011;5681;53.316;13.950;2023-04-24T10:12:45;2.60;;;1.33;;
11247;SDS011;5681;53.316;13.950;2023-04-24T10:15:12;1.65;;;1.30;;
11247;SDS011;5681;53.316;13.950;2023-04-24T10:17:39;1.30;;;1.20;;
11247;SDS011;5681;53.316;13.950;2023-04-24T10:20:06;1.88;;;1.30;;
11247;SDS011;5681;53.316;13.950;2023-04-24T10:22:34;1.40;;;1.20;;
11247;SDS011;5681;53.316;13.950;2023-04-24T10:25:02;1.70;;;1.30;;
11247;SDS011;5681;53.316;13.950;2023-04-24T10:27:30;2.67;;;1.00;;
11247;SDS011;5681;53.316;13.950;2023-04-24T10:29:58;1.42;;;1.10;;
11247;SDS011;5681;53.316;13.950;2023-04-24T10:32:26;1.40;;;1.17;;
11247;SDS011;5681;53.316;13.950;2023-04-24T10:34:52;1.95;;;1.48;;
11247;SDS011;5681;53.316;13.950;2023-04-24T10:37:18;2.15;;;1.13;;
11247;SDS011;5681;53.316;13.950;2023-04-24T10:39:47;1.67;;;0.80;;
11247;SDS011;5681;53.316;13.950;2023-04-24T10:42:14;4.32;;;1.25;;
11247;SDS011;5681;53.316;13.950;2023-04-24T10:44:41;1.40;;;0.90;;
11247;SDS011;5681;53.316;13.950;2023-04-24T10:47:13;1.80;;;1.00;;
11247;SDS011;5681;53.316;13.950;2023-04-24T10:49:39;1.90;;;0.90;;
11247;SDS011;5681;53.316;13.950;2023-04-24T10:52:06;2.25;;;1.20;;
11247;SDS011;5681;53.316;13.950;2023-04-24T10:54:35;1.00;;;0.63;;
11247;SDS011;5681;53.316;13.950;2023-04-24T11:00:14;2.10;;;1.00;;
11247;SDS011;5681;53.316;13.950;2023-04-24T11:02:45;4.60;;;1.13;;
11247;SDS011;5681;53.316;13.950;2023-04-24T11:05:15;1.92;;;0.60;;
11247;SDS011;5681;53.316;13.950;2023-04-24T11:10:38;1.65;;;1.00;;
11247;SDS011;5681;53.316;13.950;2023-04-24T11:13:09;1.40;;;0.80;;
11247;SDS011;5681;53.316;13.950;2023-04-24T11:15:35;2.75;;;0.75;;
11247;SDS011;5681;53.316;13.950;2023-04-24T11:18:03;2.65;;;0.88;;
11247;SDS011;5681;53.316;13.950;2023-04-24T11:20:30;4.18;;;1.17;;
11247;SDS011;5681;53.316;13.950;2023-04-24T11:22:57;1.42;;;0.70;;
11247;SDS011;5681;53.316;13.950;2023-04-24T11:25:30;2.30;;;1.13;;
11247;SDS011;5681;53.316;13.950;2023-04-24T11:28:02;1.60;;;0.90;;
11247;SDS011;5681;53.316;13.950;2023-04-24T11:30:29;0.93;;;0.60;;
11247;SDS011;5681;53.316;13.950;2023-04-24T11:32:57;3.22;;;0.85;;
11247;SDS011;5681;53.316;13.950;2023-04-24T11:35:29;1.45;;;0.82;;
11247;SDS011;5681;53.316;13.950;2023-04-24T11:37:56;0.80;;;0.63;;
11247;SDS011;5681;53.316;13.950;2023-04-24T11:40:23;3.05;;;0.43;;
11247;SDS011;5681;53.316;13.950;2023-04-24T11:42:51;0.60;;;0.50;;
11247;SDS011;5681;53.316;13.950;2023-04-24T11:45:18;0.40;;;0.40;;
11247;SDS011;5681;53.316;13.950;2023-04-24T11:47:47;4.45;;;0.70;;
11247;SDS011;5681;53.316;13.950;2023-04-24T11:50:14;1.13;;;0.43;;
11247;SDS011;5681;53.316;13.950;2023-04-24T11:52:43;0.30;;;0.30;;
11247;SDS011;5681;53.316;13.950;2023-04-24T11:55:22;0.50;;;0.50;;
11247;SDS011;5681;53.316;13.950;2023-04-24T11:57:52;2.10;;;0.65;;
11247;SDS011;5681;53.316;13.950;2023-04-24T12:00:21;1.38;;;0.55;;
11247;SDS011;5681;53.316;13.950;2023-04-24T12:02:48;0.65;;;0.38;;
11247;SDS011;5681;53.316;13.950;2023-04-24T12:05:18;0.82;;;0.50;;
11247;SDS011;5681;53.316;13.950;2023-04-24T12:07:47;3.13;;;0.50;;
11247;SDS011;5681;53.316;13.950;2023-04-24T12:10:13;1.00;;;0.52;;
11247;SDS011;5681;53.316;13.950;2023-04-24T12:12:39;1.58;;;0.45;;
11247;SDS011;5681;53.316;13.950;2023-04-24T12:15:06;1.85;;;0.40;;
11247;SDS011;5681;53.316;13.950;2023-04-24T12:17:33;1.17;;;0.52;;
11247;SDS011;5681;53.316;13.950;2023-04-24T12:20:02;6.45;;;0.65;;
11247;SDS011;5681;53.316;13.950;2023-04-24T12:22:42;0.77;;;0.60;;
11247;SDS011;5681;53.316;13.950;2023-04-24T12:25:11;1.52;;;0.82;;
11247;SDS011;5681;53.316;13.950;2023-04-24T12:27:38;1.77;;;0.70;;
11247;SDS011;5681;53.316;13.950;2023-04-24T12:30:05;0.77;;;0.30;;
11247;SDS011;5681;53.316;13.950;2023-04-24T12:32:32;1.58;;;0.60;;
11247;SDS011;5681;53.316;13.950;2023-04-24T12:34:58;0.70;;;0.50;;
11247;SDS011;5681;53.316;13.950;2023-04-24T12:37:25;1.25;;;0.63;;
11247;SDS011;5681;53.316;13.950;2023-04-24T12:39:58;2.65;;;0.60;;
11247;SDS011;5681;53.316;13.950;2023-04-24T12:42:27;2.15;;;0.60;;
11247;SDS011;5681;53.316;13.950;2023-04-24T12:44:56;1.13;;;0.63;;
11247;SDS011;5681;53.316;13.950;2023-04-24T12:47:23;2.22;;;0.60;;
11247;SDS011;5681;53.316;13.950;2023-04-24T12:49:50;2.35;;;0.60;;
11247;SDS011;5681;53.316;13.950;2023-04-24T12:52:17;1.05;;;0.55;;
11247;SDS011;5681;53.316;13.950;2023-04-24T12:54:44;2.25;;;0.43;;
11247;SDS011;5681;53.316;13.950;2023-04-24T12:57:11;3.10;;;0.40;;
11247;SDS011;5681;53.316;13.950;2023-04-24T12:59:38;1.30;;;0.55;;
11247;SDS011;5681;53.316;13.950;2023-04-24T13:02:05;2.15;;;0.55;;
11247;SDS011;5681;53.316;13.950;2023-04-24T13:04:32;2.95;;;0.70;;
11247;SDS011;5681;53.316;13.950;2023-04-24T13:06:58;3.13;;;0.60;;
11247;SDS011;5681;53.316;13.950;2023-04-24T13:09:25;1.17;;;0.60;;
11247;SDS011;5681;53.316;13.950;2023-04-24T13:11:51;1.02;;;0.40;;
11247;SDS011;5681;53.316;13.950;2023-04-24T13:14:17;0.82;;;0.52;;
11247;SDS011;5681;53.316;13.950;2023-04-24T13:16:45;0.88;;;0.65;;
11247;SDS011;5681;53.316;13.950;2023-04-24T13:19:11;3.30;;;0.73;;
11247;SDS011;5681;53.316;13.950;2023-04-24T13:21:37;1.05;;;0.60;;
11247;SDS011;5681;53.316;13.950;2023-04-24T13:24:04;1.65;;;0.80;;
11247;SDS011;5681;53.316;13.950;2023-04-24T13:26:32;1.08;;;0.65;;
11247;SDS011;5681;53.316;13.950;2023-04-24T13:28:59;1.33;;;0.70;;
11247;SDS011;5681;53.316;13.950;2023-04-24T13:31:25;1.55;;;0.60;;
11247;SDS011;5681;53.316;13.950;2023-04-24T13:33:53;1.02;;;0.68;;
11247;SDS011;5681;53.316;13.950;2023-04-24T13:36:19;2.13;;;0.60;;
11247;SDS011;5681;53.316;13.950;2023-04-24T13:38:45;1.60;;;0.85;;
11247;SDS011;5681;53.316;13.950;2023-04-24T13:41:11;5.30;;;0.65;;
11247;SDS011;5681;53.316;13.950;2023-04-24T13:43:38;0.75;;;0.63;;
11247;SDS011;5681;53.316;13.950;2023-04-24T13:46:06;1.27;;;0.60;;
11247;SDS011;5681;53.316;13.950;2023-04-24T13:48:32;3.05;;;0.95;;
11247;SDS011;5681;53.316;13.950;2023-04-24T13:51:00;1.23;;;0.60;;
11247;SDS011;5681;53.316;13.950;2023-04-24T13:53:27;0.43;;;0.43;;
11247;SDS011;5681;53.316;13.950;2023-04-24T13:55:53;1.63;;;0.75;;
11247;SDS011;5681;53.316;13.950;2023-04-24T13:58:20;0.85;;;0.70;;
11247;SDS011;5681;53.316;13.950;2023-04-24T14:00:47;1.38;;;0.70;;
11247;SDS011;5681;53.316;13.950;2023-04-24T14:03:13;3.80;;;0.63;;
11247;SDS011;5681;53.316;13.950;2023-04-24T14:05:40;3.75;;;0.50;;
11247;SDS011;5681;53.316;13.950;2023-04-24T14:08:07;1.27;;;0.60;;
11247;SDS011;5681;53.316;13.950;2023-04-24T14:10:34;1.42;;;0.95;;
11247;SDS011;5681;53.316;13.950;2023-04-24T14:13:00;1.95;;;0.80;;
11247;SDS011;5681;53.316;13.950;2023-04-24T14:15:27;4.93;;;1.05;;
11247;SDS011;5681;53.316;13.950;2023-04-24T14:17:53;2.75;;;1.27;;
11247;SDS011;5681;53.316;13.950;2023-04-24T14:20:20;1.52;;;0.90;;
11247;SDS011;5681;53.316;13.950;2023-04-24T14:22:47;2.28;;;1.38;;
11247;SDS011;5681;53.316;13.950;2023-04-24T14:25:14;2.05;;;1.40;;
11247;SDS011;5681;53.316;13.950;2023-04-24T14:27:41;1.45;;;0.98;;
11247;SDS011;5681;53.316;13.950;2023-04-24T14:30:08;3.38;;;1.10;;
11247;SDS011;5681;53.316;13.950;2023-04-24T14:32:34;2.63;;;1.00;;
11247;SDS011;5681;53.316;13.950;2023-04-24T14:35:01;1.83;;;0.90;;
11247;SDS011;5681;53.316;13.950;2023-04-24T14:37:27;2.72;;;0.90;;
11247;SDS011;5681;53.316;13.950;2023-04-24T14:39:54;2.05;;;0.90;;
11247;SDS011;5681;53.316;13.950;2023-04-24T14:42:21;1.60;;;1.10;;
11247;SDS011;5681;53.316;13.950;2023-04-24T14:44:47;3.28;;;1.10;;